Carver, Minnesota
Current Conditions -  °F | °C
As of 7:53 AM on Friday 19 Dec 2014 (Local Time) from KFCM Reporting Station
Overcast Overcast  
Wind Chill: 16°   Ceiling: 1200
Heat Index: 23°   Visibility: 7mi
Dew Point: 19°   Wind: 6mph
Humidity: 85%   Direction: 120°ESE
Pressure: 30.23"   Gusts: NA
Location:  44.76°N, 93.63°W
Report Text: KFCM 191353Z 12005KT 7SM OVC012 M05/M07 A3023 RMK AO2 SLP250 T10501072
Loading
Personal Weather Stations






























Interactive Weather Map New forecast layout! Learn more

10-Day Weather Forecast

Advertisements
Track Severe Weather on mobile